createdAt,value
2022-08-19T00:04:47.681Z,24.53
2022-08-19T00:09:50.551Z,24.55
2022-08-19T00:14:55.324Z,24.56
2022-08-19T00:19:58.217Z,24.53
2022-08-19T00:25:02.236Z,24.52
2022-08-19T00:30:08.419Z,24.46
2022-08-19T00:35:11.759Z,24.40
2022-08-19T00:40:15.184Z,24.30
2022-08-19T00:45:26.513Z,24.23
2022-08-19T00:50:31.104Z,24.15
2022-08-19T00:55:34.673Z,24.09
2022-08-19T01:00:38.532Z,23.98
2022-08-19T01:05:44.243Z,23.86
2022-08-19T01:10:55.484Z,23.83
2022-08-19T01:16:08.088Z,23.75
2022-08-19T01:21:49.617Z,23.69
2022-08-19T01:26:52.584Z,23.66
2022-08-19T01:31:56.485Z,23.57
2022-08-19T01:36:59.262Z,23.48
2022-08-19T01:42:04.269Z,23.41
2022-08-19T01:47:08.208Z,23.32
2022-08-19T01:52:10.982Z,23.22
2022-08-19T01:57:15.730Z,23.09
2022-08-19T02:02:18.588Z,23.03
2022-08-19T02:07:22.659Z,22.96
2022-08-19T02:12:25.526Z,22.93
2022-08-19T02:17:29.921Z,22.87
2022-08-19T02:22:33.159Z,22.84
2022-08-19T02:27:36.221Z,22.85
2022-08-19T02:32:44.632Z,22.89
2022-08-19T02:38:07.383Z,22.91
2022-08-19T02:43:10.891Z,22.91
2022-08-19T02:48:21.816Z,22.91
2022-08-19T02:53:28.891Z,22.88
2022-08-19T02:58:31.717Z,22.85
2022-08-19T03:03:34.942Z,22.81
2022-08-19T03:08:39.746Z,22.84
2022-08-19T03:13:44.407Z,22.85
2022-08-19T03:18:48.181Z,22.81
2022-08-19T03:24:02.236Z,22.78
2022-08-19T03:29:06.659Z,22.73
2022-08-19T03:34:14.998Z,22.67
2022-08-19T03:39:18.520Z,22.60
2022-08-19T03:44:23.187Z,22.57
2022-08-19T03:49:30.532Z,22.55
2022-08-19T03:54:34.242Z,22.54
2022-08-19T03:59:38.759Z,22.54
2022-08-19T04:04:44.773Z,22.54
2022-08-19T04:09:47.730Z,22.53
2022-08-19T04:14:50.562Z,22.58
2022-08-19T04:19:53.414Z,22.62
2022-08-19T04:24:58.998Z,22.66
2022-08-19T04:30:02.047Z,22.70
2022-08-19T04:35:17.890Z,22.77
2022-08-19T04:40:40.596Z,22.86
2022-08-19T04:45:45.539Z,22.96
2022-08-19T04:50:49.343Z,23.07
2022-08-19T04:55:52.858Z,23.18
2022-08-19T05:00:55.812Z,23.30
2022-08-19T05:05:59.475Z,23.39
2022-08-19T05:11:02.440Z,23.48
2022-08-19T05:16:06.227Z,23.60
2022-08-19T05:21:36.572Z,23.71
2022-08-19T05:26:43.866Z,23.86
2022-08-19T05:31:50.352Z,24.02
2022-08-19T05:36:59.716Z,24.19
2022-08-19T05:42:08.142Z,24.34
2022-08-19T05:47:15.879Z,24.51
2022-08-19T05:52:25.576Z,24.65
2022-08-19T05:57:30.141Z,24.81
2022-08-19T06:02:33.095Z,24.95
2022-08-19T06:07:40.582Z,25.16
2022-08-19T06:12:43.839Z,25.35
2022-08-19T06:17:46.885Z,25.50
2022-08-19T06:22:52.443Z,25.63
2022-08-19T06:28:14.791Z,25.82
2022-08-19T06:33:18.730Z,25.98
2022-08-19T06:38:23.907Z,26.15
2022-08-19T06:43:28.110Z,26.34
2022-08-19T06:48:35.548Z,26.48
2022-08-19T06:53:40.614Z,26.64
2022-08-19T06:58:44.195Z,26.79
2022-08-19T07:03:47.510Z,26.97
2022-08-19T07:08:52.677Z,27.17
2022-08-19T07:14:00.118Z,27.30
2022-08-19T07:19:11.826Z,27.43
2022-08-19T07:24:19.177Z,27.63
2022-08-19T07:29:25.818Z,27.88
2022-08-19T07:34:38.173Z,28.03
2022-08-19T07:39:42.939Z,28.17
2022-08-19T07:44:50.208Z,28.40
2022-08-19T07:49:53.596Z,28.59
2022-08-19T07:54:56.523Z,28.78
2022-08-19T07:59:59.912Z,29.04
2022-08-19T08:05:21.062Z,29.28
2022-08-19T08:10:24.237Z,29.57
2022-08-19T08:15:27.590Z,29.84
2022-08-19T08:20:32.211Z,30.08
2022-08-19T08:25:37.298Z,30.30
2022-08-19T08:30:45.138Z,30.44
2022-08-19T08:35:48.759Z,30.65
2022-08-19T08:41:03.295Z,30.87
2022-08-19T08:46:35.708Z,31.04
2022-08-19T08:52:05.705Z,31.17
2022-08-19T08:57:27.533Z,31.30
2022-08-19T09:02:33.725Z,31.44
2022-08-19T09:07:57.374Z,31.66
2022-08-19T09:13:19.111Z,31.96
2022-08-19T09:18:22.105Z,32.30
2022-08-19T09:23:27.036Z,32.53
2022-08-19T09:28:32.531Z,32.54
2022-08-19T09:33:36.014Z,32.65
2022-08-19T09:38:43.469Z,32.68
2022-08-19T09:43:53.107Z,32.91
2022-08-19T09:49:06.185Z,33.03
2022-08-19T09:54:11.360Z,33.07
2022-08-19T09:59:14.435Z,33.41
2022-08-19T10:04:20.126Z,33.49
2022-08-19T10:09:33.727Z,33.62
2022-08-19T10:14:37.430Z,33.87
2022-08-19T10:19:42.281Z,33.92
2022-08-19T10:24:58.180Z,34.27
2022-08-19T10:30:01.114Z,34.74
2022-08-19T10:35:09.110Z,35.07
2022-08-19T10:40:12.687Z,35.16
2022-08-19T10:45:15.627Z,35.16
2022-08-19T10:50:37.249Z,35.09
2022-08-19T10:55:59.322Z,35.16
2022-08-19T11:01:02.183Z,35.27
2022-08-19T11:06:08.876Z,35.54
2022-08-19T11:11:13.395Z,35.72
2022-08-19T11:16:24.555Z,35.59
2022-08-19T11:21:34.365Z,35.78
2022-08-19T11:26:39.661Z,36.05
2022-08-19T11:31:48.227Z,36.34
2022-08-19T11:36:52.904Z,36.47
2022-08-19T11:41:58.247Z,36.45
2022-08-19T11:47:09.334Z,36.60
2022-08-19T11:52:12.453Z,36.81
2022-08-19T11:57:17.872Z,37.00
2022-08-19T12:02:20.733Z,37.19
2022-08-19T12:07:23.620Z,37.49
2022-08-19T12:12:27.728Z,37.48
2022-08-19T12:17:31.796Z,37.40
2022-08-19T12:22:36.125Z,37.41
2022-08-19T12:27:41.668Z,37.28
2022-08-19T12:32:45.643Z,37.00
2022-08-19T12:37:56.608Z,36.85
2022-08-19T12:43:00.617Z,36.72
2022-08-19T12:48:03.862Z,36.79
2022-08-19T12:53:27.110Z,36.94
2022-08-19T12:58:30.694Z,37.06
2022-08-19T13:03:36.417Z,37.12
2022-08-19T13:08:41.426Z,37.43
2022-08-19T13:13:49.325Z,37.67
2022-08-19T13:18:53.014Z,37.84
2022-08-19T13:23:55.828Z,38.12
2022-08-19T13:29:17.501Z,38.31
2022-08-19T13:34:34.898Z,38.45
2022-08-19T13:39:38.435Z,38.35
2022-08-19T13:44:41.372Z,38.24
2022-08-19T13:49:44.140Z,37.90
2022-08-19T13:54:49.315Z,37.42
2022-08-19T13:59:52.691Z,37.05
2022-08-19T14:04:55.467Z,36.11
2022-08-19T14:09:58.276Z,34.92
2022-08-19T14:15:04.081Z,34.12
2022-08-19T14:20:10.963Z,33.64
2022-08-19T14:25:19.590Z,33.11
2022-08-19T14:30:33.411Z,32.75
2022-08-19T14:35:37.194Z,32.63
2022-08-19T14:40:41.612Z,32.72
2022-08-19T14:45:44.774Z,32.72
2022-08-19T14:50:47.766Z,32.53
2022-08-19T14:55:50.883Z,32.31
2022-08-19T15:00:54.215Z,32.13
2022-08-19T15:05:58.747Z,31.96
2022-08-19T15:11:02.958Z,31.68
2022-08-19T15:16:06.109Z,31.42
2022-08-19T15:21:26.975Z,31.15
2022-08-19T15:26:33.302Z,31.01
2022-08-19T15:31:38.077Z,30.89
2022-08-19T15:36:41.601Z,30.80
2022-08-19T15:41:47.199Z,30.67
2022-08-19T15:46:50.172Z,30.55
2022-08-19T15:51:54.519Z,30.45
2022-08-19T15:57:15.825Z,30.37
2022-08-19T16:02:39.814Z,30.29
2022-08-19T16:07:43.232Z,30.22
2022-08-19T16:12:46.284Z,30.16
2022-08-19T16:17:55.426Z,30.11
2022-08-19T16:23:00.377Z,30.06
2022-08-19T16:28:07.994Z,30.04
2022-08-19T16:33:11.705Z,30.03
2022-08-19T16:38:14.577Z,30.01
2022-08-19T16:43:17.452Z,29.97
2022-08-19T16:48:26.408Z,29.93
2022-08-19T16:53:32.021Z,29.89
2022-08-19T16:58:36.088Z,29.82
2022-08-19T17:03:39.974Z,29.70
2022-08-19T17:08:48.093Z,29.59
2022-08-19T17:13:52.709Z,29.40
2022-08-19T17:18:58.655Z,29.17
2022-08-19T17:24:06.169Z,28.93
2022-08-19T17:29:09.889Z,28.70
2022-08-19T17:34:12.734Z,28.52
2022-08-19T17:39:15.620Z,28.40
2022-08-19T17:44:19.402Z,28.32
2022-08-19T17:49:22.554Z,28.23
2022-08-19T17:54:25.630Z,28.18
2022-08-19T17:59:37.636Z,28.21
2022-08-19T18:04:41.397Z,28.22
2022-08-19T18:09:51.721Z,28.23
2022-08-19T18:14:55.639Z,28.22
2022-08-19T18:19:58.485Z,28.25
2022-08-19T18:25:24.308Z,28.26
2022-08-19T18:30:34.056Z,28.23
2022-08-19T18:35:39.266Z,28.05
2022-08-19T18:41:01.065Z,27.97
2022-08-19T18:46:22.245Z,27.92
2022-08-19T18:51:30.147Z,27.89
2022-08-19T18:56:33.332Z,27.86
2022-08-19T19:01:39.628Z,27.80
2022-08-19T19:06:43.397Z,27.61
2022-08-19T19:11:51.175Z,27.18
2022-08-19T19:16:55.436Z,26.83
2022-08-19T19:21:59.339Z,26.52
2022-08-19T19:27:08.444Z,26.31
2022-08-19T19:32:29.528Z,26.08
2022-08-19T19:37:33.165Z,25.85
2022-08-19T19:42:36.407Z,25.50
2022-08-19T19:47:39.872Z,25.18
2022-08-19T19:52:48.311Z,24.95
2022-08-19T19:57:52.675Z,24.72
2022-08-19T20:02:56.043Z,24.45
2022-08-19T20:08:17.488Z,24.06
2022-08-19T20:13:22.288Z,23.59
2022-08-19T20:18:25.394Z,23.30
2022-08-19T20:23:28.270Z,22.99
2022-08-19T20:28:31.971Z,22.58
2022-08-19T20:33:35.180Z,22.38
2022-08-19T20:38:41.959Z,22.31
2022-08-19T20:43:44.715Z,22.31
2022-08-19T20:48:47.729Z,22.22
2022-08-19T20:53:50.595Z,22.11
2022-08-19T20:58:57.848Z,22.01
2022-08-19T21:04:03.426Z,21.87
2022-08-19T21:09:06.489Z,21.69
2022-08-19T21:14:09.378Z,21.44
2022-08-19T21:19:12.917Z,21.23
2022-08-19T21:24:15.728Z,21.08
2022-08-19T21:29:18.689Z,21.02
2022-08-19T21:34:21.486Z,20.96
2022-08-19T21:39:24.531Z,20.84
2022-08-19T21:44:27.433Z,20.78
2022-08-19T21:49:31.458Z,20.73
2022-08-19T21:54:37.858Z,20.69
2022-08-19T21:59:44.114Z,20.66
2022-08-19T22:04:48.433Z,20.63
2022-08-19T22:09:51.770Z,20.62
2022-08-19T22:14:56.042Z,20.61
2022-08-19T22:19:59.038Z,20.64
2022-08-19T22:25:31.520Z,20.69
2022-08-19T22:30:38.214Z,20.74
2022-08-19T22:35:44.697Z,20.79
2022-08-19T22:40:50.435Z,20.89
2022-08-19T22:45:56.104Z,20.97
2022-08-19T22:51:19.522Z,20.99
2022-08-19T22:56:22.493Z,20.96
2022-08-19T23:01:29.836Z,20.98
2022-08-19T23:06:36.369Z,20.95
2022-08-19T23:11:41.712Z,20.91
2022-08-19T23:16:50.709Z,20.92
2022-08-19T23:21:54.133Z,20.90
2022-08-19T23:27:15.869Z,20.83
2022-08-19T23:32:21.017Z,20.74
2022-08-19T23:37:25.484Z,20.66
2022-08-19T23:42:28.990Z,20.65
2022-08-19T23:47:31.951Z,20.63
2022-08-19T23:52:44.815Z,20.59
2022-08-19T23:57:47.887Z,20.54
